This is the latest recevied weather packets stored in our database for station/object G4GJR. If no packets are shown the sender has not sent any weather packets the latest 10 day(s).
| Time | Temp. | Humidity | Pressure | Rain* | Wind** | Luminosity | Snow |
|---|---|---|---|---|---|---|---|
| 1777233604 | 14.44° C | 69% | 1024.8 hPa | 0 mm | - | - | - |
| 1777225504 | 18.33° C | 52% | 1024 hPa | 0 mm | - | - | - |
| 1777224604 | 18.89° C | 49% | 1023.8 hPa | 0 mm | - | - | - |
| 1777217405 | 20° C | 41% | 1024.3 hPa | 0 mm | - | - | - |
| 1777198504 | 14.44° C | 68% | 1026.2 hPa | 0 mm | - | - | - |
| 1777194004 | 10.56° C | 81% | 1026.4 hPa | 0 mm | - | - | - |
| 1777192204 | 8.89° C | 85% | 1026.5 hPa | 0 mm | - | - | - |
| 1777191304 | 8.33° C | 86% | 1026.5 hPa | 0 mm | - | - | - |
| 1777177804 | 6.11° C | 92% | 1025.5 hPa | 0 mm | - | - | - |
| 1777176904 | 6.11° C | 92% | 1025.5 hPa | 0 mm | - | - | - |
| 1777176004 | 6.11° C | 92% | 1025.3 hPa | 0 mm | - | - | - |
| 1777173304 | 6.11° C | 92% | 1025.4 hPa | 0 mm | - | - | - |
| 1777168804 | 5.56° C | 91% | 1024.9 hPa | 0 mm | - | - | - |
| 1777163404 | 6.67° C | 89% | 1024.5 hPa | 0 mm | - | - | - |
| 1777162503 | 6.67° C | 89% | 1024.5 hPa | 0 mm | - | - | - |
| 1777160704 | 7.22° C | 88% | 1024.3 hPa | 0 mm | - | - | - |
| 1777158005 | 7.78° C | 86% | 1024 hPa | 0 mm | - | - | - |
| 1777154404 | 8.89° C | 82% | 1023.4 hPa | 0 mm | - | - | - |
| 1777149004 | 11.67° C | 74% | 1023 hPa | 0 mm | - | - | - |
| 1777148104 | 11.67° C | 72% | 1022.9 hPa | 0 mm | - | - | - |
| 1777141804 | 21.67° C | 23% | 1021.2 hPa | 0 mm | - | - | - |
| 1777140904 | 21.67° C | 22% | 1021.3 hPa | 0 mm | - | - | - |
| 1777129204 | 21.11° C | 17% | 1021.1 hPa | 0 mm | - | - | - |
| 1777127404 | 20.56° C | 19% | 1021.1 hPa | 0 mm | - | - | - |
| 1777125604 | 21.11° C | 20% | 1021.3 hPa | 0 mm | - | - | - |
* Rain latest hour (hover to see other rain measurements)
** Current wind speed in m/s (hover to see current wind gust speed)